Time;durP1;ratioP1;P1;durP2;ratioP2;P2;SDS_P1;SDS_P2;PMS_P1;PMS_P2;Temp;Humidity;BMP_temperature;BMP_pressure;BME280_temperature;BME280_humidity;BME280_pressure;Samples;Min_cycle;Max_cycle;Signal;HPM_P1;HPM_P2
2022/11/22 00:02:43;;;;;;;41.65;24.73;;;0.80;99.90;;;;;;5084095;28;20065;-63
2022/11/22 00:05:29;;;;;;;41.38;25.65;;;0.80;99.90;;;;;;5086470;28;20069;-62
2022/11/22 00:08:15;;;;;;;42.97;25.48;;;0.80;99.90;;;;;;5098562;28;20024;-63
2022/11/22 00:11:01;;;;;;;40.67;25.88;;;0.80;99.90;;;;;;5081218;28;20035;-60
2022/11/22 00:13:47;;;;;;;38.88;24.05;;;0.80;99.90;;;;;;5089096;28;20108;-60
2022/11/22 00:16:33;;;;;;;36.72;22.50;;;0.90;99.90;;;;;;5051625;28;20402;-64
2022/11/22 00:19:19;;;;;;;39.50;24.30;;;0.90;99.90;;;;;;5092476;28;20028;-62
2022/11/22 00:22:08;;;;;;;36.67;22.33;;;0.90;99.90;;;;;;5082352;28;20424;-62
2022/11/22 00:24:54;;;;;;;36.47;21.17;;;0.90;99.90;;;;;;5065748;28;20052;-62
2022/11/22 00:27:40;;;;;;;39.92;21.98;;;0.90;99.90;;;;;;5052073;28;20564;-63
2022/11/22 00:30:26;;;;;;;42.67;25.33;;;0.90;99.90;;;;;;5085022;28;20115;-63
2022/11/22 00:33:12;;;;;;;43.85;24.85;;;0.90;99.90;;;;;;5055622;28;20031;-64
2022/11/22 00:35:58;;;;;;;39.35;24.45;;;0.90;99.90;;;;;;5104663;28;20035;-64
2022/11/22 00:38:44;;;;;;;35.28;21.95;;;0.90;99.90;;;;;;5079057;28;20024;-63
2022/11/22 00:41:30;;;;;;;38.00;21.88;;;0.90;99.90;;;;;;5096770;28;20020;-63
2022/11/22 00:44:16;;;;;;;35.35;21.80;;;1.00;99.90;;;;;;5096435;28;20024;-61
2022/11/22 00:47:02;;;;;;;35.17;21.42;;;1.00;99.90;;;;;;5094080;28;20028;-64
2022/11/22 00:49:48;;;;;;;33.10;20.80;;;0.90;99.90;;;;;;5099852;28;20032;-64
2022/11/22 00:52:34;;;;;;;36.92;24.55;;;0.90;99.90;;;;;;5087492;28;20040;-64
2022/11/22 00:55:20;;;;;;;38.20;23.10;;;0.90;99.90;;;;;;5076317;28;20055;-63
2022/11/22 00:58:05;;;;;;;38.30;23.02;;;0.90;99.90;;;;;;5075099;28;20047;-63
2022/11/22 01:00:51;;;;;;;37.10;22.52;;;0.90;99.90;;;;;;5084345;28;20028;-63
2022/11/22 01:03:37;;;;;;;35.38;21.98;;;0.90;99.90;;;;;;5103681;28;20024;-62
2022/11/22 01:06:23;;;;;;;37.50;22.73;;;0.90;99.90;;;;;;5094329;28;20024;-63
2022/11/22 01:09:15;;;;;;;35.53;22.48;;;0.90;99.90;;;;;;5081219;28;20032;-64
2022/11/22 01:12:01;;;;;;;32.45;21.10;;;0.90;99.90;;;;;;5084675;28;20106;-62
2022/11/22 01:14:47;;;;;;;34.17;20.98;;;0.90;99.90;;;;;;5080329;28;20059;-63
2022/11/22 01:17:33;;;;;;;33.17;22.02;;;0.90;99.90;;;;;;5085513;28;20097;-63
2022/11/22 01:20:19;;;;;;;33.28;20.52;;;0.90;99.90;;;;;;5098365;28;20089;-63
2022/11/22 01:23:04;;;;;;;34.55;22.10;;;1.00;99.90;;;;;;5070117;28;20047;-64
2022/11/22 01:25:50;;;;;;;31.60;19.92;;;1.00;99.90;;;;;;5083768;28;20021;-62
2022/11/22 01:28:36;;;;;;;33.40;21.15;;;1.10;99.90;;;;;;5072263;28;20139;-62
2022/11/22 01:31:22;;;;;;;29.42;19.92;;;1.10;99.90;;;;;;5069395;28;20028;-63
2022/11/22 01:34:08;;;;;;;33.35;20.90;;;1.10;99.90;;;;;;5061236;28;20057;-62
2022/11/22 01:36:54;;;;;;;30.73;19.85;;;1.20;99.90;;;;;;5088623;28;20038;-62
2022/11/22 01:39:40;;;;;;;32.25;20.55;;;1.20;99.90;;;;;;5067166;28;20032;-62
2022/11/22 01:42:59;;;;;;;29.13;19.25;;;1.20;99.90;;;;;;5074736;28;20369;-63
2022/11/22 01:45:51;;;;;;;33.42;21.15;;;1.10;99.90;;;;;;5043469;28;20081;-62
2022/11/22 01:48:51;;;;;;;34.28;20.33;;;1.00;99.90;;;;;;5072572;28;20066;-62
2022/11/22 01:51:41;;;;;;;33.28;21.35;;;1.00;99.90;;;;;;5088481;28;20024;-62
2022/11/22 01:54:30;;;;;;;35.45;21.35;;;1.10;99.90;;;;;;5089705;28;20104;-62
2022/11/22 01:57:19;;;;;;;29.60;18.83;;;1.00;99.90;;;;;;5071311;28;20127;-63
2022/11/22 02:00:10;;;;;;;36.58;21.77;;;1.00;99.90;;;;;;5097057;28;20032;-61
2022/11/22 02:03:01;;;;;;;32.92;21.15;;;1.10;99.90;;;;;;5079949;28;20032;-62
2022/11/22 02:05:48;;;;;;;33.50;20.77;;;1.00;99.90;;;;;;5072535;28;20469;-62
2022/11/22 02:08:52;;;;;;;35.38;22.17;;;1.00;99.90;;;;;;5085323;28;20057;-63
2022/11/22 02:11:46;;;;;;;35.70;21.42;;;1.00;99.90;;;;;;5083251;28;20370;-61
2022/11/22 02:14:33;;;;;;;37.00;22.50;;;0.90;99.90;;;;;;5084932;28;20096;-63
2022/11/22 02:17:19;;;;;;;35.28;21.55;;;0.90;99.90;;;;;;5064524;28;20063;-62
2022/11/22 02:20:06;;;;;;;37.05;23.35;;;0.90;99.90;;;;;;5064973;28;20028;-62
2022/11/22 02:22:52;;;;;;;35.63;21.05;;;0.90;99.90;;;;;;5064602;28;20066;-62
2022/11/22 02:25:57;;;;;;;33.42;20.45;;;1.00;99.90;;;;;;5082885;28;20016;-63
2022/11/22 02:28:43;;;;;;;31.77;19.65;;;1.00;99.90;;;;;;5098561;28;20101;-63
2022/11/22 02:31:42;;;;;;;36.13;20.65;;;1.00;99.90;;;;;;5082179;28;20060;-63
2022/11/22 02:34:28;;;;;;;36.55;21.95;;;0.90;99.90;;;;;;5063686;28;20099;-62
2022/11/22 02:37:20;;;;;;;34.22;20.50;;;1.00;99.90;;;;;;5093529;28;20032;-64
2022/11/22 02:40:10;;;;;;;33.47;20.55;;;0.90;99.90;;;;;;5082422;28;20035;-62
2022/11/22 02:43:01;;;;;;;29.90;18.90;;;1.00;99.90;;;;;;5078601;28;20021;-64
2022/11/22 02:45:47;;;;;;;33.65;20.83;;;1.00;99.90;;;;;;5095734;28;20031;-61
2022/11/22 02:48:37;;;;;;;30.80;20.05;;;1.00;99.90;;;;;;5083120;28;20554;-62
2022/11/22 02:51:23;;;;;;;30.90;18.35;;;1.00;99.90;;;;;;5077214;28;20029;-63
2022/11/22 02:54:09;;;;;;;33.20;20.30;;;1.00;99.90;;;;;;5065913;28;20036;-63
2022/11/22 02:56:55;;;;;;;30.77;19.65;;;1.00;99.90;;;;;;5096353;28;20121;-63
2022/11/22 02:59:41;;;;;;;29.42;19.08;;;0.90;99.90;;;;;;5088099;28;20492;-62
2022/11/22 03:02:27;;;;;;;30.63;19.90;;;0.90;99.90;;;;;;5062830;28;20021;-62
2022/11/22 03:05:13;;;;;;;30.42;19.40;;;1.00;99.90;;;;;;5057064;28;20035;-62
2022/11/22 03:07:59;;;;;;;33.53;21.50;;;0.90;99.90;;;;;;5077687;28;20443;-62
2022/11/22 03:10:45;;;;;;;34.78;20.05;;;1.00;99.90;;;;;;5078595;28;20042;-61
2022/11/22 03:13:31;;;;;;;31.42;19.40;;;1.00;99.90;;;;;;5084363;28;20056;-62
2022/11/22 03:16:17;;;;;;;32.60;20.10;;;1.00;99.90;;;;;;5064717;28;20040;-62
2022/11/22 03:19:03;;;;;;;28.83;19.15;;;1.00;99.90;;;;;;5078479;28;20036;-63
2022/11/22 03:21:49;;;;;;;30.98;19.48;;;1.00;99.90;;;;;;5083738;28;20028;-62
2022/11/22 03:24:35;;;;;;;31.38;20.30;;;1.00;99.90;;;;;;5087730;28;20107;-61
2022/11/22 03:27:20;;;;;;;30.98;20.13;;;1.00;99.90;;;;;;5101302;28;20028;-62
2022/11/22 03:30:07;;;;;;;30.35;19.42;;;1.00;99.90;;;;;;5082797;28;20119;-61
2022/11/22 03:32:53;;;;;;;30.27;20.38;;;1.10;99.90;;;;;;5092954;28;20058;-62
2022/11/22 03:35:39;;;;;;;33.28;19.67;;;1.10;99.90;;;;;;5063849;28;20460;-60
2022/11/22 03:38:25;;;;;;;31.25;20.33;;;1.10;99.90;;;;;;5087759;28;20032;-62
2022/11/22 03:41:11;;;;;;;29.35;19.08;;;1.20;99.90;;;;;;5096541;28;20031;-62
2022/11/22 03:43:56;;;;;;;29.98;19.67;;;1.20;99.90;;;;;;5079632;28;20032;-63
2022/11/22 03:46:42;;;;;;;28.90;19.70;;;1.20;99.90;;;;;;5095570;28;20031;-63
2022/11/22 03:49:28;;;;;;;28.85;19.58;;;1.20;99.90;;;;;;5094434;28;20067;-63
2022/11/22 03:52:14;;;;;;;33.13;20.17;;;1.20;99.90;;;;;;5080736;28;20032;-63
2022/11/22 03:55:01;;;;;;;32.67;20.38;;;1.20;99.90;;;;;;5060897;28;20029;-61
2022/11/22 03:57:46;;;;;;;32.47;19.08;;;1.30;99.90;;;;;;5078537;28;20112;-63
2022/11/22 04:00:33;;;;;;;31.50;20.10;;;1.30;99.90;;;;;;5095393;28;20525;-63
2022/11/22 04:03:19;;;;;;;30.63;19.88;;;1.30;99.90;;;;;;5117249;28;20036;-62
2022/11/22 04:06:05;;;;;;;31.25;19.23;;;1.30;99.90;;;;;;5102098;28;20023;-63
2022/11/22 04:08:51;;;;;;;34.92;19.55;;;1.30;99.90;;;;;;5091876;28;20035;-62
2022/11/22 04:11:37;;;;;;;30.63;19.80;;;1.30;99.90;;;;;;5095917;28;20026;-64
2022/11/22 04:17:40;;;;;;;28.60;18.77;;;1.40;99.90;;;;;;5064426;28;20092;-63
2022/11/22 04:23:32;;;;;;;32.22;19.95;;;1.40;99.90;;;;;;5084458;28;20463;-62
2022/11/22 04:26:18;;;;;;;29.05;18.80;;;1.40;99.90;;;;;;5085661;28;20016;-62
2022/11/22 04:29:04;;;;;;;27.23;18.73;;;1.40;99.90;;;;;;5075775;28;20100;-61
2022/11/22 04:34:55;;;;;;;27.52;18.10;;;1.50;99.90;;;;;;5096233;28;20094;-62
2022/11/22 04:37:42;;;;;;;32.67;19.35;;;1.50;99.90;;;;;;5096919;28;20050;-61
2022/11/22 04:40:28;;;;;;;27.85;18.52;;;1.60;99.90;;;;;;5081138;28;20029;-63
2022/11/22 04:46:37;;;;;;;89.07;43.80;;;1.60;99.90;;;;;;5098345;28;20024;-63
2022/11/22 04:49:23;;;;;;;60.03;32.55;;;1.60;99.90;;;;;;5066171;28;20044;-61
2022/11/22 04:55:13;;;;;;;38.60;22.90;;;1.60;99.90;;;;;;5081159;28;20488;-62
2022/11/22 04:57:59;;;;;;;29.38;19.58;;;1.60;99.90;;;;;;5067068;28;20025;-61
2022/11/22 05:00:46;;;;;;;29.65;17.95;;;1.60;99.90;;;;;;5067266;28;20028;-62
2022/11/22 05:03:32;;;;;;;31.58;18.58;;;1.60;99.90;;;;;;5079296;28;20553;-63
2022/11/22 05:06:18;;;;;;;31.13;21.10;;;1.50;99.90;;;;;;5079972;28;20036;-64
2022/11/22 05:09:04;;;;;;;28.23;19.05;;;1.60;99.90;;;;;;5098493;28;20119;-63
2022/11/22 05:11:50;;;;;;;29.88;18.63;;;1.60;99.90;;;;;;5080250;28;20055;-61
2022/11/22 05:14:36;;;;;;;26.42;18.58;;;1.60;99.90;;;;;;5080420;28;20100;-63
2022/11/22 05:17:22;;;;;;;28.38;19.20;;;1.60;99.90;;;;;;5076749;28;20036;-62
2022/11/22 05:20:09;;;;;;;30.75;19.42;;;1.60;99.90;;;;;;5086446;28;20020;-63
2022/11/22 05:26:00;;;;;;;26.05;18.30;;;1.60;99.90;;;;;;5102214;28;20024;-62
2022/11/22 05:28:46;;;;;;;29.67;18.77;;;1.60;99.90;;;;;;5083694;28;20040;-62
2022/11/22 05:31:33;;;;;;;30.90;19.65;;;1.50;99.90;;;;;;5080055;28;20028;-62
2022/11/22 05:34:19;;;;;;;28.33;18.75;;;1.60;99.90;;;;;;5100474;28;20496;-64
2022/11/22 05:37:05;;;;;;;31.00;18.77;;;1.60;99.90;;;;;;5068916;28;20094;-63
2022/11/22 05:39:51;;;;;;;28.30;19.23;;;1.60;99.90;;;;;;5067528;28;20477;-63
2022/11/22 05:42:37;;;;;;;29.13;18.55;;;1.60;99.90;;;;;;5089739;28;20028;-63
2022/11/22 05:45:23;;;;;;;29.15;19.45;;;1.60;99.90;;;;;;5073725;28;20035;-61
2022/11/22 05:48:08;;;;;;;29.55;20.63;;;1.60;99.90;;;;;;5089623;28;20025;-60
2022/11/22 05:50:54;;;;;;;28.70;19.75;;;1.70;99.90;;;;;;5083107;28;20098;-62
2022/11/22 05:53:41;;;;;;;29.77;18.52;;;1.70;99.90;;;;;;5070036;28;20031;-63
2022/11/22 05:56:27;;;;;;;29.58;19.08;;;1.70;99.90;;;;;;5087619;28;20021;-64
2022/11/22 05:59:13;;;;;;;27.77;19.15;;;1.60;99.90;;;;;;5066809;28;20119;-68
2022/11/22 06:01:59;;;;;;;28.60;18.85;;;1.60;99.90;;;;;;5067191;28;20051;-62
2022/11/22 06:04:45;;;;;;;31.45;20.00;;;1.60;99.90;;;;;;5067252;28;20025;-63
2022/11/22 06:07:31;;;;;;;33.05;21.02;;;1.70;99.90;;;;;;5083891;28;20443;-64
2022/11/22 06:10:18;;;;;;;40.40;25.98;;;1.60;99.90;;;;;;5082977;28;20038;-61
2022/11/22 06:13:04;;;;;;;34.42;22.98;;;1.70;99.90;;;;;;5102698;28;20081;-62
2022/11/22 06:15:50;;;;;;;33.25;21.38;;;1.60;99.90;;;;;;5094376;28;20027;-63
2022/11/22 06:18:36;;;;;;;31.67;20.00;;;1.60;99.90;;;;;;5067707;28;20029;-63
2022/11/22 06:21:24;;;;;;;34.60;22.35;;;1.60;99.90;;;;;;5076909;28;20024;-64
2022/11/22 06:24:10;;;;;;;33.97;21.80;;;1.70;99.90;;;;;;5081355;28;20503;-62
2022/11/22 06:26:56;;;;;;;28.95;20.10;;;1.60;99.90;;;;;;5094280;28;20027;-63
2022/11/22 06:29:42;;;;;;;32.42;21.13;;;1.60;99.90;;;;;;5089781;28;20042;-63
2022/11/22 06:32:31;;;;;;;31.20;20.45;;;1.70;99.90;;;;;;5088024;28;20020;-62
2022/11/22 06:35:17;;;;;;;31.27;21.10;;;1.60;99.90;;;;;;5058266;28;20074;-63
2022/11/22 06:38:04;;;;;;;36.35;21.48;;;1.60;99.90;;;;;;5069391;28;20050;-64
2022/11/22 06:40:50;;;;;;;34.22;23.23;;;1.60;99.90;;;;;;5115533;28;20024;-62
2022/11/22 06:43:37;;;;;;;37.38;22.20;;;1.60;99.90;;;;;;5069707;28;20025;-64
2022/11/22 06:46:25;;;;;;;33.08;22.00;;;1.60;99.90;;;;;;5096297;28;20048;-63
2022/11/22 06:49:11;;;;;;;35.78;22.23;;;1.60;99.90;;;;;;5085777;28;20036;-61
2022/11/22 06:51:57;;;;;;;33.90;20.65;;;1.60;99.90;;;;;;5073881;28;20028;-62
2022/11/22 06:54:43;;;;;;;30.55;21.08;;;1.70;99.90;;;;;;5084966;28;20036;-64
2022/11/22 06:57:29;;;;;;;34.28;21.52;;;1.60;99.90;;;;;;5070161;28;20032;-63
2022/11/22 07:00:15;;;;;;;33.33;20.83;;;1.60;99.90;;;;;;5065546;28;20078;-63
2022/11/22 07:03:01;;;;;;;32.45;20.90;;;1.60;99.90;;;;;;5097519;28;20028;-62
2022/11/22 07:05:51;;;;;;;33.28;22.23;;;1.60;99.90;;;;;;5078862;28;20029;-63
2022/11/22 07:08:38;;;;;;;32.28;21.55;;;1.60;99.90;;;;;;5080151;28;20025;-61
2022/11/22 07:11:26;;;;;;;33.58;20.60;;;1.60;99.90;;;;;;5084704;28;20024;-62
2022/11/22 07:14:12;;;;;;;32.50;21.00;;;1.60;99.90;;;;;;5106902;28;20024;-64
2022/11/22 07:16:58;;;;;;;32.20;21.65;;;1.60;99.90;;;;;;5087142;28;20113;-63
2022/11/22 07:19:44;;;;;;;33.13;20.63;;;1.60;99.90;;;;;;5095580;28;20025;-65
2022/11/22 07:22:30;;;;;;;32.17;20.02;;;1.60;99.90;;;;;;5084028;28;20043;-62
2022/11/22 07:25:16;;;;;;;33.08;20.90;;;1.70;99.90;;;;;;5105474;28;20039;-63
2022/11/22 07:28:02;;;;;;;32.40;20.38;;;1.80;99.90;;;;;;5070853;28;20027;-63
2022/11/22 07:30:48;;;;;;;35.53;21.38;;;1.70;99.90;;;;;;5114731;28;20024;-64
2022/11/22 07:33:35;;;;;;;29.90;20.75;;;1.80;99.90;;;;;;5098671;28;20027;-63
2022/11/22 07:36:22;;;;;;;33.47;20.58;;;1.80;99.90;;;;;;5100499;28;20035;-65
2022/11/22 07:39:08;;;;;;;44.38;26.23;;;1.90;99.90;;;;;;5082036;28;20032;-61
2022/11/22 07:41:53;;;;;;;35.20;23.35;;;1.90;99.90;;;;;;5066541;28;20055;-63
2022/11/22 07:44:39;;;;;;;33.95;20.50;;;2.00;99.90;;;;;;5090643;28;20060;-61
2022/11/22 07:47:25;;;;;;;33.72;20.88;;;2.10;99.90;;;;;;5080154;28;20024;-64
2022/11/22 07:50:11;;;;;;;34.40;20.30;;;2.20;99.90;;;;;;5093215;28;20505;-59
2022/11/22 07:52:58;;;;;;;32.95;21.20;;;2.20;99.90;;;;;;5091581;28;20084;-63
2022/11/22 07:55:44;;;;;;;30.63;20.98;;;2.30;99.90;;;;;;5089138;28;20020;-62
2022/11/22 07:58:31;;;;;;;31.38;21.52;;;2.30;99.90;;;;;;5070764;28;20080;-63
2022/11/22 08:01:18;;;;;;;35.17;23.88;;;2.30;99.90;;;;;;5087533;28;20083;-62
2022/11/22 08:04:04;;;;;;;32.92;21.45;;;2.40;99.90;;;;;;5086769;28;20042;-62
2022/11/22 08:06:50;;;;;;;35.45;23.08;;;2.40;99.90;;;;;;5085932;28;20092;-61
2022/11/22 08:09:36;;;;;;;43.55;26.52;;;2.40;99.90;;;;;;5068818;28;20547;-62
2022/11/22 08:12:22;;;;;;;40.47;24.40;;;2.50;99.90;;;;;;5086636;28;20029;-65
2022/11/22 08:15:09;;;;;;;34.25;20.88;;;2.50;99.90;;;;;;5062527;28;20024;-64
2022/11/22 08:17:55;;;;;;;32.30;19.48;;;2.60;99.90;;;;;;5082771;28;20024;-61
2022/11/22 08:20:41;;;;;;;30.92;21.15;;;2.60;99.90;;;;;;5080770;28;20051;-63
2022/11/22 08:23:27;;;;;;;35.17;22.27;;;2.60;99.90;;;;;;5088856;28;20074;-66
2022/11/22 08:26:16;;;;;;;33.45;21.15;;;2.40;99.90;;;;;;5071214;28;20021;-62
2022/11/22 08:29:07;;;;;;;30.90;19.75;;;2.40;99.90;;;;;;5085210;28;20618;-62
2022/11/22 08:31:53;;;;;;;31.50;21.33;;;2.50;99.90;;;;;;5068768;28;20029;-62
2022/11/22 08:34:39;;;;;;;31.17;20.38;;;2.50;99.90;;;;;;5083091;28;20074;-62
2022/11/22 08:37:25;;;;;;;28.92;20.15;;;2.50;99.90;;;;;;5085045;28;20126;-63
2022/11/22 08:40:11;;;;;;;31.58;21.15;;;2.50;99.90;;;;;;5089278;28;20035;-63
2022/11/22 08:42:57;;;;;;;30.55;20.35;;;2.60;99.90;;;;;;5071196;28;20024;-63
2022/11/22 08:45:43;;;;;;;33.20;19.67;;;2.80;99.90;;;;;;5089052;28;20025;-62
2022/11/22 08:48:31;;;;;;;27.73;20.23;;;2.80;99.90;;;;;;5049262;28;20028;-62
2022/11/22 08:51:17;;;;;;;29.25;19.58;;;2.90;99.90;;;;;;5092628;28;20543;-62
2022/11/22 08:54:03;;;;;;;31.88;20.83;;;3.10;99.90;;;;;;5090807;28;20608;-62
2022/11/22 08:56:49;;;;;;;33.42;20.08;;;3.00;99.90;;;;;;5077543;28;20028;-62
2022/11/22 08:59:35;;;;;;;35.35;21.50;;;3.00;99.90;;;;;;5069573;28;20031;-64
2022/11/22 09:02:21;;;;;;;33.00;19.80;;;3.10;99.90;;;;;;5094030;28;20375;-62
2022/11/22 09:05:08;;;;;;;28.10;19.27;;;3.10;99.90;;;;;;5094852;28;20112;-63
2022/11/22 09:07:54;;;;;;;30.05;20.00;;;3.20;99.90;;;;;;5077567;28;20644;-64
2022/11/22 09:10:39;;;;;;;34.78;21.38;;;3.30;99.90;;;;;;5073352;28;20078;-63
2022/11/22 09:13:26;;;;;;;32.40;21.85;;;3.30;99.90;;;;;;5086929;28;20078;-62
2022/11/22 09:16:15;;;;;;;29.77;20.25;;;3.40;99.90;;;;;;5089729;28;20476;-63
2022/11/22 09:19:01;;;;;;;28.60;20.42;;;3.40;99.90;;;;;;5088235;28;20028;-62
2022/11/22 09:21:47;;;;;;;28.15;18.65;;;3.40;99.90;;;;;;5074527;28;20449;-61
2022/11/22 09:24:33;;;;;;;32.78;20.10;;;3.50;99.90;;;;;;5090702;28;20040;-62
2022/11/22 09:27:19;;;;;;;25.48;18.42;;;3.50;99.90;;;;;;5091489;28;20103;-62
2022/11/22 09:30:08;;;;;;;25.88;19.55;;;3.50;99.90;;;;;;5094357;28;20115;-62
2022/11/22 09:32:54;;;;;;;29.13;21.00;;;3.50;99.90;;;;;;5086387;28;20048;-63
2022/11/22 09:35:41;;;;;;;28.13;19.25;;;3.50;99.90;;;;;;5064269;28;20055;-63
2022/11/22 09:38:28;;;;;;;27.27;18.73;;;3.60;99.90;;;;;;5079328;28;20025;-61
2022/11/22 09:41:23;;;;;;;28.88;19.15;;;3.60;99.90;;;;;;5091496;28;20017;-60
2022/11/22 09:44:43;;;;;;;32.17;21.13;;;3.70;99.90;;;;;;5082706;28;20021;-63
2022/11/22 09:47:50;;;;;;;30.42;19.75;;;3.70;99.90;;;;;;5084488;28;20051;-61
2022/11/22 09:50:56;;;;;;;28.73;17.92;;;3.70;99.90;;;;;;5078368;28;20108;-63
2022/11/22 09:54:09;;;;;;;26.70;17.77;;;3.70;99.90;;;;;;5086310;28;20500;-62
2022/11/22 09:57:01;;;;;;;28.70;18.88;;;3.60;99.90;;;;;;5093455;28;20037;-61
2022/11/22 09:59:57;;;;;;;27.17;18.38;;;3.70;99.90;;;;;;5072152;28;20032;-61
2022/11/22 10:02:51;;;;;;;25.65;17.75;;;3.60;99.90;;;;;;5074987;28;20479;-61
2022/11/22 10:06:07;;;;;;;25.20;17.70;;;3.70;99.90;;;;;;5068418;28;20040;-64
2022/11/22 10:09:17;;;;;;;25.65;17.23;;;3.70;99.90;;;;;;5086726;28;20020;-62
2022/11/22 10:12:33;;;;;;;26.13;16.98;;;3.80;99.90;;;;;;5088835;28;20024;-63
2022/11/22 10:15:52;;;;;;;26.37;18.57;;;3.90;99.90;;;;;;5074624;28;20039;-63
2022/11/22 10:18:43;;;;;;;22.67;16.30;;;3.90;99.90;;;;;;5087606;28;20029;-65
2022/11/22 10:21:32;;;;;;;22.65;17.15;;;4.00;99.90;;;;;;5059295;28;20012;-62
2022/11/22 10:24:19;;;;;;;25.05;16.60;;;4.10;99.90;;;;;;5083420;28;20024;-61
2022/11/22 10:27:20;;;;;;;25.13;16.90;;;4.10;99.90;;;;;;5093450;28;20058;-61
2022/11/22 10:30:18;;;;;;;25.17;16.17;;;4.20;99.90;;;;;;5089052;28;20491;-64
2022/11/22 10:33:21;;;;;;;20.55;14.93;;;4.30;99.90;;;;;;5078184;28;20078;-64
2022/11/22 10:36:10;;;;;;;22.42;15.60;;;4.40;99.90;;;;;;5095464;28;20032;-61
2022/11/22 10:39:16;;;;;;;26.45;15.57;;;4.30;99.90;;;;;;5095372;28;20028;-62
2022/11/22 10:42:42;;;;;;;23.60;16.08;;;4.30;99.90;;;;;;5098390;28;20020;-63
2022/11/22 10:46:11;;;;;;;20.73;15.75;;;4.20;99.90;;;;;;5100421;28;20321;-62
2022/11/22 10:49:23;;;;;;;21.08;15.77;;;4.30;99.90;;;;;;5091760;28;20052;-61
2022/11/22 10:52:34;;;;;;;20.38;15.10;;;4.30;99.90;;;;;;5098338;28;20027;-61
2022/11/22 10:55:40;;;;;;;22.73;15.65;;;4.20;99.90;;;;;;5106883;28;20027;-64
2022/11/22 10:58:26;;;;;;;19.73;13.02;;;4.20;99.90;;;;;;5087866;28;20040;-63
2022/11/22 11:01:41;;;;;;;24.95;14.80;;;4.20;99.90;;;;;;5080658;28;20027;-62
2022/11/22 11:04:34;;;;;;;21.00;14.90;;;4.30;99.90;;;;;;5086764;28;20078;-63
2022/11/22 11:07:23;;;;;;;22.42;14.45;;;4.30;99.90;;;;;;5078428;28;20078;-62
2022/11/22 11:10:22;;;;;;;22.23;15.82;;;4.30;99.90;;;;;;5092618;28;20097;-64
2022/11/22 11:13:22;;;;;;;22.10;15.27;;;4.30;99.90;;;;;;5092651;28;20024;-63
2022/11/22 11:16:13;;;;;;;27.67;15.05;;;4.30;99.90;;;;;;5093712;28;20031;-63
2022/11/22 11:19:10;;;;;;;22.85;15.38;;;4.30;99.90;;;;;;5091636;28;20032;-62
2022/11/22 11:22:16;;;;;;;20.90;14.27;;;4.30;99.90;;;;;;5078196;28;20100;-63
2022/11/22 11:25:29;;;;;;;24.92;14.85;;;4.40;99.90;;;;;;5080491;28;20021;-63
2022/11/22 11:28:30;;;;;;;27.95;13.93;;;4.40;99.90;;;;;;5077331;28;20020;-63
2022/11/22 11:31:20;;;;;;;24.05;15.52;;;4.50;99.90;;;;;;5091467;28;20024;-63
2022/11/22 11:34:25;;;;;;;23.10;15.65;;;4.60;99.90;;;;;;5094837;28;20056;-64
2022/11/22 11:37:25;;;;;;;20.30;14.63;;;4.60;99.90;;;;;;5092879;28;20423;-65
2022/11/22 11:40:32;;;;;;;20.17;15.00;;;4.70;99.90;;;;;;5077425;28;20035;-62
2022/11/22 11:43:23;;;;;;;19.02;14.10;;;4.80;99.90;;;;;;5075639;28;20020;-66
2022/11/22 11:46:21;;;;;;;22.40;14.95;;;4.90;99.90;;;;;;5076518;28;20016;-67
2022/11/22 11:49:16;;;;;;;23.65;16.17;;;4.90;99.90;;;;;;5091363;28;20576;-65
2022/11/22 11:52:10;;;;;;;23.50;15.30;;;5.00;99.90;;;;;;5062412;28;20518;-65
2022/11/22 11:55:01;;;;;;;23.65;14.95;;;5.00;99.90;;;;;;5076193;28;20380;-65
2022/11/22 11:57:51;;;;;;;22.33;14.65;;;5.10;99.90;;;;;;5076841;28;20115;-67
2022/11/22 12:00:40;;;;;;;20.40;15.40;;;5.10;99.90;;;;;;5089964;28;20035;-67
2022/11/22 12:03:27;;;;;;;22.08;15.05;;;5.20;99.90;;;;;;5075837;28;20107;-68
2022/11/22 12:06:15;;;;;;;18.98;14.60;;;5.10;99.90;;;;;;5063468;28;20036;-66
2022/11/22 12:09:25;;;;;;;18.90;14.68;;;5.10;99.90;;;;;;5076988;28;20040;-68
2022/11/22 12:12:22;;;;;;;21.02;14.20;;;5.10;99.90;;;;;;5091132;28;20020;-66
2022/11/22 12:15:31;;;;;;;23.50;13.50;;;5.10;99.90;;;;;;5075619;28;20446;-65
2022/11/22 12:18:42;;;;;;;17.98;13.82;;;5.20;99.90;;;;;;5089682;28;20130;-65
2022/11/22 12:21:38;;;;;;;19.30;13.68;;;5.30;99.90;;;;;;5090708;28;20042;-66
2022/11/22 12:24:47;;;;;;;18.10;13.52;;;5.30;99.90;;;;;;5091238;28;20099;-65
2022/11/22 12:27:34;;;;;;;19.80;14.15;;;5.40;99.90;;;;;;5090183;28;20031;-66
2022/11/22 12:30:22;;;;;;;20.17;14.43;;;5.40;99.90;;;;;;5090212;28;20514;-65
2022/11/22 12:33:26;;;;;;;19.55;12.68;;;5.50;99.90;;;;;;5075779;28;20058;-65
2022/11/22 12:36:20;;;;;;;24.33;14.75;;;5.60;99.90;;;;;;5089410;28;20024;-64
2022/11/22 12:39:12;;;;;;;22.77;14.40;;;5.60;99.90;;;;;;5089546;28;20021;-64
2022/11/22 12:42:23;;;;;;;19.65;13.27;;;5.70;99.90;;;;;;5089113;28;20126;-64
2022/11/22 12:45:30;;;;;;;19.23;13.27;;;5.70;99.90;;;;;;5089335;28;20035;-63
2022/11/22 12:48:33;;;;;;;20.30;12.10;;;5.80;99.90;;;;;;5086605;28;20031;-64
2022/11/22 12:51:56;;;;;;;20.15;14.07;;;5.80;99.90;;;;;;5069552;28;20023;-64
2022/11/22 12:55:17;;;;;;;21.00;14.88;;;5.90;99.90;;;;;;5055012;28;20405;-63
2022/11/22 12:58:22;;;;;;;21.52;13.48;;;6.10;99.90;;;;;;5070740;28;20025;-63
2022/11/22 13:01:36;;;;;;;21.30;14.13;;;6.10;99.90;;;;;;5069038;28;20012;-60
2022/11/22 13:04:46;;;;;;;23.77;13.63;;;6.20;99.90;;;;;;5055246;28;20408;-63
2022/11/22 13:07:44;;;;;;;29.42;14.32;;;6.00;99.90;;;;;;5070641;28;20035;-62
2022/11/22 13:10:38;;;;;;;21.60;13.85;;;6.10;99.90;;;;;;5058426;28;20021;-63
2022/11/22 13:13:26;;;;;;;18.23;13.50;;;6.20;99.90;;;;;;5059295;28;20023;-63
2022/11/22 13:16:15;;;;;;;18.73;13.13;;;6.30;99.90;;;;;;5072981;28;20066;-63
2022/11/22 13:19:05;;;;;;;20.77;13.43;;;6.40;99.90;;;;;;5072880;28;20067;-61
2022/11/22 13:22:30;;;;;;;16.90;12.82;;;6.60;99.90;;;;;;5072803;28;20154;-61
2022/11/22 13:25:58;;;;;;;17.60;14.73;;;6.70;99.90;;;;;;5058693;28;20025;-62
2022/11/22 13:28:47;;;;;;;21.45;13.20;;;6.80;99.90;;;;;;5059115;28;20047;-63
2022/11/22 13:31:34;;;;;;;16.00;11.52;;;6.90;99.90;;;;;;5072492;28;20071;-63
2022/11/22 13:34:26;;;;;;;19.30;11.73;;;7.00;99.90;;;;;;5072172;28;20060;-63
2022/11/22 13:37:15;;;;;;;18.55;12.00;;;7.20;99.90;;;;;;5072524;28;20500;-63
2022/11/22 13:40:19;;;;;;;20.98;12.95;;;7.30;99.90;;;;;;5073076;28;20059;-60
2022/11/22 13:43:14;;;;;;;15.43;12.25;;;7.40;99.90;;;;;;5072670;28;20020;-64
2022/11/22 13:46:03;;;;;;;14.38;11.10;;;7.60;99.90;;;;;;5072453;28;20123;-62
2022/11/22 13:49:17;;;;;;;16.65;12.82;;;7.90;99.90;;;;;;5072478;28;20032;-62
2022/11/22 13:52:10;;;;;;;12.85;10.57;;;8.10;99.90;;;;;;5072032;28;20020;-61
2022/11/22 13:55:22;;;;;;;17.10;11.68;;;8.30;99.90;;;;;;5072300;28;20036;-60
2022/11/22 13:58:50;;;;;;;15.32;11.10;;;8.30;99.90;;;;;;5063998;28;20021;-61
2022/11/22 14:01:39;;;;;;;15.52;11.23;;;8.20;99.90;;;;;;5057005;28;20025;-62
2022/11/22 14:04:41;;;;;;;15.32;11.27;;;7.90;99.90;;;;;;5072524;28;20439;-61
2022/11/22 14:07:39;;;;;;;17.20;11.85;;;7.90;99.90;;;;;;5057804;28;20025;-64
2022/11/22 14:10:48;;;;;;;18.90;13.32;;;7.80;99.90;;;;;;5071787;28;20557;-61
2022/11/22 14:13:47;;;;;;;23.83;13.50;;;7.60;99.90;;;;;;5072133;28;20103;-62
2022/11/22 14:16:57;;;;;;;20.80;12.88;;;7.50;99.90;;;;;;5071951;28;20025;-61
2022/11/22 14:20:11;;;;;;;18.58;13.02;;;7.40;99.90;;;;;;5071424;28;20024;-59
2022/11/22 14:23:09;;;;;;;18.20;12.57;;;7.40;99.90;;;;;;5057442;28;20772;-62
2022/11/22 14:26:27;;;;;;;18.90;13.15;;;7.30;99.90;;;;;;5071841;28;20025;-61
2022/11/22 14:29:39;;;;;;;25.38;14.32;;;7.10;99.90;;;;;;5071735;28;20069;-60
2022/11/22 14:32:39;;;;;;;20.20;13.48;;;7.00;99.90;;;;;;5057698;28;20069;-62
2022/11/22 14:35:34;;;;;;;15.95;12.98;;;6.80;99.90;;;;;;5071928;28;20033;-62
2022/11/22 14:38:39;;;;;;;21.90;13.48;;;6.70;99.90;;;;;;5071561;28;20021;-58
2022/11/22 14:41:25;;;;;;;19.67;13.43;;;6.50;99.90;;;;;;5073159;28;20021;-58
2022/11/22 14:44:18;;;;;;;18.15;13.10;;;6.40;99.90;;;;;;5071482;28;20064;-62
2022/11/22 14:47:13;;;;;;;22.40;13.77;;;6.30;99.90;;;;;;5062231;28;20086;-61
2022/11/22 14:50:04;;;;;;;20.00;13.18;;;6.20;99.90;;;;;;5071901;28;20031;-61
2022/11/22 14:52:52;;;;;;;19.15;14.25;;;6.10;99.90;;;;;;5071354;28;20033;-66
2022/11/22 14:55:41;;;;;;;17.65;12.48;;;6.10;99.90;;;;;;5070044;28;20029;-62
2022/11/22 14:58:36;;;;;;;16.52;13.10;;;6.00;99.90;;;;;;5071171;28;20485;-61
2022/11/22 15:02:00;;;;;;;34.25;26.13;;;5.90;99.90;;;;;;5056022;28;20035;-60